aviador You're here:

LFBI Decoded Metar

POITIERS in FRANCE
Report Time2018-06-17 23:00:00
UTC Time2018-06-17 23:34:51
Flight Rules vfr VFR
Wind240° at 07 kt
W.Decomp.*RWY 21: 6.0 kt HW 3.6 kt RCW
W.Rank240° ranks 5
Current wind is below 240° avg. (8.7)
Visibility9999 m
Phenomena:N/A
Clouds:Broken 046 Hf
Overcast 054 Hf
Expected CloudBase > 800 ft AGL from Temp-Dew spread
Ceiling4,600 ft
Temp15°C (ISA +1)
Dew Point13°C (88% RH)
AAT13.4°C
QNH1024 hPa
Density Alt318 ft
Elevation394 ft
Report Wrong Elevation
Raw Report
METAR LFBI 172300Z AUTO 24007KT 9999 BKN046 OVC054 15/13 Q1024 BECMG
BKN014=

Extra information for LFBI:More info

Metar Taf Metar & Taf Last 4 Metars F.Rules Stats Wind Profile Meteogram Temp Stats Airport Information Weather charts Add Link Nearby VenuesMetar ALERT Operation Metar Decoded Social comments